sensor_id;sensor_type;location;lat;lon;timestamp;P1;durP1;ratioP1;P2;durP2;ratioP2
71665;SDS011;59503;53.486;10.196;2023-04-12T00:00:14;44.43;;;12.23;;
71665;SDS011;59503;53.486;10.196;2023-04-12T00:02:41;42.05;;;12.00;;
71665;SDS011;59503;53.486;10.196;2023-04-12T00:05:08;41.53;;;12.88;;
71665;SDS011;59503;53.486;10.196;2023-04-12T00:07:35;40.42;;;11.60;;
71665;SDS011;59503;53.486;10.196;2023-04-12T00:10:03;42.63;;;10.87;;
71665;SDS011;59503;53.486;10.196;2023-04-12T00:12:30;33.83;;;10.95;;
71665;SDS011;59503;53.486;10.196;2023-04-12T00:14:55;36.33;;;10.70;;
71665;SDS011;59503;53.486;10.196;2023-04-12T00:17:20;29.97;;;10.23;;
71665;SDS011;59503;53.486;10.196;2023-04-12T00:19:47;32.33;;;10.40;;
71665;SDS011;59503;53.486;10.196;2023-04-12T00:22:14;36.58;;;10.55;;
71665;SDS011;59503;53.486;10.196;2023-04-12T00:24:39;30.07;;;9.93;;
71665;SDS011;59503;53.486;10.196;2023-04-12T00:27:05;40.50;;;10.77;;
71665;SDS011;59503;53.486;10.196;2023-04-12T00:29:30;35.07;;;10.57;;
71665;SDS011;59503;53.486;10.196;2023-04-12T00:31:56;34.03;;;10.53;;
71665;SDS011;59503;53.486;10.196;2023-04-12T00:34:25;37.70;;;10.77;;
71665;SDS011;59503;53.486;10.196;2023-04-12T00:36:50;34.33;;;9.77;;
71665;SDS011;59503;53.486;10.196;2023-04-12T00:39:15;32.73;;;9.63;;
71665;SDS011;59503;53.486;10.196;2023-04-12T00:41:41;37.07;;;10.00;;
71665;SDS011;59503;53.486;10.196;2023-04-12T00:44:06;30.47;;;9.20;;
71665;SDS011;59503;53.486;10.196;2023-04-12T00:46:31;29.07;;;9.37;;
71665;SDS011;59503;53.486;10.196;2023-04-12T00:48:57;33.20;;;10.48;;
71665;SDS011;59503;53.486;10.196;2023-04-12T00:51:23;31.77;;;9.57;;
71665;SDS011;59503;53.486;10.196;2023-04-12T00:53:50;31.73;;;9.30;;
71665;SDS011;59503;53.486;10.196;2023-04-12T00:56:17;29.67;;;9.27;;
71665;SDS011;59503;53.486;10.196;2023-04-12T00:58:43;29.37;;;8.93;;
71665;SDS011;59503;53.486;10.196;2023-04-12T01:01:09;31.95;;;9.65;;
71665;SDS011;59503;53.486;10.196;2023-04-12T01:03:35;28.97;;;8.77;;
71665;SDS011;59503;53.486;10.196;2023-04-12T01:06:15;33.53;;;9.05;;
71665;SDS011;59503;53.486;10.196;2023-04-12T01:09:02;32.97;;;9.13;;
71665;SDS011;59503;53.486;10.196;2023-04-12T01:11:35;26.45;;;8.23;;
71665;SDS011;59503;53.486;10.196;2023-04-12T01:14:23;33.85;;;9.05;;
71665;SDS011;59503;53.486;10.196;2023-04-12T01:16:58;25.87;;;9.23;;
71665;SDS011;59503;53.486;10.196;2023-04-12T01:27:55;28.80;;;8.15;;
71665;SDS011;59503;53.486;10.196;2023-04-12T01:30:25;26.80;;;8.90;;
71665;SDS011;59503;53.486;10.196;2023-04-12T01:32:52;24.17;;;7.80;;
71665;SDS011;59503;53.486;10.196;2023-04-12T01:35:20;22.63;;;6.95;;
71665;SDS011;59503;53.486;10.196;2023-04-12T01:37:48;23.77;;;8.68;;
71665;SDS011;59503;53.486;10.196;2023-04-12T01:40:14;26.00;;;7.20;;
71665;SDS011;59503;53.486;10.196;2023-04-12T01:42:39;24.30;;;6.65;;
71665;SDS011;59503;53.486;10.196;2023-04-12T01:45:05;20.87;;;6.87;;
71665;SDS011;59503;53.486;10.196;2023-04-12T01:47:32;21.08;;;7.28;;
71665;SDS011;59503;53.486;10.196;2023-04-12T01:50:00;26.27;;;7.15;;
71665;SDS011;59503;53.486;10.196;2023-04-12T01:52:37;15.90;;;6.65;;
71665;SDS011;59503;53.486;10.196;2023-04-12T01:55:06;12.73;;;5.90;;
71665;SDS011;59503;53.486;10.196;2023-04-12T01:57:32;23.73;;;7.00;;
71665;SDS011;59503;53.486;10.196;2023-04-12T01:59:59;18.90;;;6.57;;
71665;SDS011;59503;53.486;10.196;2023-04-12T02:02:27;16.75;;;5.90;;
71665;SDS011;59503;53.486;10.196;2023-04-12T02:04:52;18.00;;;5.77;;
71665;SDS011;59503;53.486;10.196;2023-04-12T02:07:18;25.67;;;6.68;;
71665;SDS011;59503;53.486;10.196;2023-04-12T02:09:44;15.67;;;5.37;;
71665;SDS011;59503;53.486;10.196;2023-04-12T02:12:10;12.68;;;5.65;;
71665;SDS011;59503;53.486;10.196;2023-04-12T02:14:36;13.05;;;4.55;;
71665;SDS011;59503;53.486;10.196;2023-04-12T02:17:02;13.50;;;5.30;;
71665;SDS011;59503;53.486;10.196;2023-04-12T02:19:28;12.85;;;4.75;;
71665;SDS011;59503;53.486;10.196;2023-04-12T02:21:54;14.43;;;4.93;;
71665;SDS011;59503;53.486;10.196;2023-04-12T02:24:20;12.00;;;4.70;;
71665;SDS011;59503;53.486;10.196;2023-04-12T02:26:45;10.63;;;4.40;;
71665;SDS011;59503;53.486;10.196;2023-04-12T02:29:13;13.75;;;4.70;;
71665;SDS011;59503;53.486;10.196;2023-04-12T02:31:39;12.57;;;3.92;;
71665;SDS011;59503;53.486;10.196;2023-04-12T02:34:05;13.10;;;3.87;;
71665;SDS011;59503;53.486;10.196;2023-04-12T02:36:31;14.90;;;4.72;;
71665;SDS011;59503;53.486;10.196;2023-04-12T02:38:57;7.90;;;3.72;;
71665;SDS011;59503;53.486;10.196;2023-04-12T02:41:22;7.93;;;2.90;;
71665;SDS011;59503;53.486;10.196;2023-04-12T02:43:48;14.10;;;3.17;;
71665;SDS011;59503;53.486;10.196;2023-04-12T02:46:19;10.55;;;3.65;;
71665;SDS011;59503;53.486;10.196;2023-04-12T02:48:46;7.17;;;3.60;;
71665;SDS011;59503;53.486;10.196;2023-04-12T02:51:12;10.35;;;3.10;;
71665;SDS011;59503;53.486;10.196;2023-04-12T02:53:38;14.13;;;3.33;;
71665;SDS011;59503;53.486;10.196;2023-04-12T02:56:04;11.23;;;3.80;;
71665;SDS011;59503;53.486;10.196;2023-04-12T02:58:29;14.77;;;3.20;;
71665;SDS011;59503;53.486;10.196;2023-04-12T03:00:57;14.87;;;3.87;;
71665;SDS011;59503;53.486;10.196;2023-04-12T03:03:24;8.70;;;3.08;;
71665;SDS011;59503;53.486;10.196;2023-04-12T03:05:50;8.40;;;2.80;;
71665;SDS011;59503;53.486;10.196;2023-04-12T03:08:17;9.30;;;2.88;;
71665;SDS011;59503;53.486;10.196;2023-04-12T03:10:43;10.95;;;2.70;;
71665;SDS011;59503;53.486;10.196;2023-04-12T03:13:08;12.00;;;2.07;;
71665;SDS011;59503;53.486;10.196;2023-04-12T03:15:34;10.90;;;2.90;;
71665;SDS011;59503;53.486;10.196;2023-04-12T03:17:59;7.30;;;2.70;;
71665;SDS011;59503;53.486;10.196;2023-04-12T03:20:25;8.50;;;2.00;;
71665;SDS011;59503;53.486;10.196;2023-04-12T03:22:52;5.88;;;2.25;;
71665;SDS011;59503;53.486;10.196;2023-04-12T03:25:18;5.13;;;2.20;;
71665;SDS011;59503;53.486;10.196;2023-04-12T03:27:43;19.63;;;3.10;;
71665;SDS011;59503;53.486;10.196;2023-04-12T03:30:09;6.05;;;2.03;;
71665;SDS011;59503;53.486;10.196;2023-04-12T03:32:39;9.00;;;2.33;;
71665;SDS011;59503;53.486;10.196;2023-04-12T03:35:08;8.60;;;2.07;;
71665;SDS011;59503;53.486;10.196;2023-04-12T03:37:34;9.68;;;1.70;;
71665;SDS011;59503;53.486;10.196;2023-04-12T03:40:00;7.93;;;2.25;;
71665;SDS011;59503;53.486;10.196;2023-04-12T03:42:29;7.83;;;2.40;;
71665;SDS011;59503;53.486;10.196;2023-04-12T03:44:54;10.70;;;2.20;;
71665;SDS011;59503;53.486;10.196;2023-04-12T03:47:20;5.73;;;1.90;;
71665;SDS011;59503;53.486;10.196;2023-04-12T03:49:45;8.15;;;2.00;;
71665;SDS011;59503;53.486;10.196;2023-04-12T03:52:12;4.80;;;1.90;;
71665;SDS011;59503;53.486;10.196;2023-04-12T03:54:37;7.30;;;1.63;;
71665;SDS011;59503;53.486;10.196;2023-04-12T03:57:03;7.28;;;1.60;;
71665;SDS011;59503;53.486;10.196;2023-04-12T03:59:28;6.20;;;1.87;;
71665;SDS011;59503;53.486;10.196;2023-04-12T04:01:55;8.45;;;2.00;;
71665;SDS011;59503;53.486;10.196;2023-04-12T04:04:21;7.77;;;1.97;;
71665;SDS011;59503;53.486;10.196;2023-04-12T04:06:47;3.90;;;1.85;;
71665;SDS011;59503;53.486;10.196;2023-04-12T04:09:13;10.50;;;2.00;;
71665;SDS011;59503;53.486;10.196;2023-04-12T04:11:39;7.53;;;1.40;;
71665;SDS011;59503;53.486;10.196;2023-04-12T04:14:04;5.10;;;1.92;;
71665;SDS011;59503;53.486;10.196;2023-04-12T04:16:30;9.37;;;2.47;;
71665;SDS011;59503;53.486;10.196;2023-04-12T04:18:55;10.57;;;2.40;;
71665;SDS011;59503;53.486;10.196;2023-04-12T04:21:21;4.63;;;1.67;;
71665;SDS011;59503;53.486;10.196;2023-04-12T04:23:46;6.20;;;2.00;;
71665;SDS011;59503;53.486;10.196;2023-04-12T04:26:12;6.57;;;1.92;;
71665;SDS011;59503;53.486;10.196;2023-04-12T04:28:40;10.50;;;1.88;;
71665;SDS011;59503;53.486;10.196;2023-04-12T04:31:09;6.78;;;1.90;;
71665;SDS011;59503;53.486;10.196;2023-04-12T04:33:36;3.90;;;1.73;;
71665;SDS011;59503;53.486;10.196;2023-04-12T04:36:03;4.60;;;2.05;;
71665;SDS011;59503;53.486;10.196;2023-04-12T04:38:29;4.55;;;1.67;;
71665;SDS011;59503;53.486;10.196;2023-04-12T04:40:59;11.27;;;1.65;;
71665;SDS011;59503;53.486;10.196;2023-04-12T04:43:28;7.97;;;1.70;;
71665;SDS011;59503;53.486;10.196;2023-04-12T04:45:55;8.93;;;2.10;;
71665;SDS011;59503;53.486;10.196;2023-04-12T04:48:23;4.32;;;1.60;;
71665;SDS011;59503;53.486;10.196;2023-04-12T04:50:49;8.98;;;2.15;;
71665;SDS011;59503;53.486;10.196;2023-04-12T04:53:18;12.37;;;2.20;;
71665;SDS011;59503;53.486;10.196;2023-04-12T04:55:45;4.25;;;1.40;;
71665;SDS011;59503;53.486;10.196;2023-04-12T04:58:12;8.98;;;1.70;;
71665;SDS011;59503;53.486;10.196;2023-04-12T05:00:37;6.25;;;1.63;;
71665;SDS011;59503;53.486;10.196;2023-04-12T05:03:03;4.70;;;1.90;;
71665;SDS011;59503;53.486;10.196;2023-04-12T05:05:28;5.67;;;1.60;;
71665;SDS011;59503;53.486;10.196;2023-04-12T05:07:54;9.50;;;1.63;;
71665;SDS011;59503;53.486;10.196;2023-04-12T05:10:21;4.20;;;1.40;;
71665;SDS011;59503;53.486;10.196;2023-04-12T05:12:47;6.40;;;1.50;;
71665;SDS011;59503;53.486;10.196;2023-04-12T05:15:12;8.02;;;1.50;;
71665;SDS011;59503;53.486;10.196;2023-04-12T05:17:38;8.60;;;1.90;;
71665;SDS011;59503;53.486;10.196;2023-04-12T05:20:04;5.28;;;1.65;;
71665;SDS011;59503;53.486;10.196;2023-04-12T05:22:32;8.40;;;1.90;;
71665;SDS011;59503;53.486;10.196;2023-04-12T05:24:59;4.50;;;1.52;;
71665;SDS011;59503;53.486;10.196;2023-04-12T05:27:25;5.57;;;1.50;;
71665;SDS011;59503;53.486;10.196;2023-04-12T05:29:52;5.55;;;2.40;;
71665;SDS011;59503;53.486;10.196;2023-04-12T05:32:18;5.65;;;1.73;;
71665;SDS011;59503;53.486;10.196;2023-04-12T05:34:43;6.10;;;2.13;;
71665;SDS011;59503;53.486;10.196;2023-04-12T05:37:09;4.78;;;1.65;;
71665;SDS011;59503;53.486;10.196;2023-04-12T05:39:35;6.80;;;1.67;;
71665;SDS011;59503;53.486;10.196;2023-04-12T05:42:00;7.63;;;1.77;;
71665;SDS011;59503;53.486;10.196;2023-04-12T05:44:26;6.17;;;1.90;;
71665;SDS011;59503;53.486;10.196;2023-04-12T05:46:51;4.57;;;1.77;;
71665;SDS011;59503;53.486;10.196;2023-04-12T05:49:16;5.43;;;1.70;;
71665;SDS011;59503;53.486;10.196;2023-04-12T05:51:42;5.50;;;2.43;;
71665;SDS011;59503;53.486;10.196;2023-04-12T05:54:07;4.33;;;1.67;;
71665;SDS011;59503;53.486;10.196;2023-04-12T05:56:34;6.32;;;2.00;;
71665;SDS011;59503;53.486;10.196;2023-04-12T05:59:00;3.63;;;2.03;;
71665;SDS011;59503;53.486;10.196;2023-04-12T06:01:27;3.83;;;1.60;;
71665;SDS011;59503;53.486;10.196;2023-04-12T06:03:57;6.93;;;1.98;;
71665;SDS011;59503;53.486;10.196;2023-04-12T06:06:22;8.02;;;1.73;;
71665;SDS011;59503;53.486;10.196;2023-04-12T06:08:48;6.40;;;1.90;;
71665;SDS011;59503;53.486;10.196;2023-04-12T06:11:13;4.50;;;1.80;;
71665;SDS011;59503;53.486;10.196;2023-04-12T06:13:40;9.02;;;1.83;;
71665;SDS011;59503;53.486;10.196;2023-04-12T06:16:05;5.70;;;1.97;;
71665;SDS011;59503;53.486;10.196;2023-04-12T06:18:31;6.03;;;2.07;;
71665;SDS011;59503;53.486;10.196;2023-04-12T06:20:57;10.80;;;2.47;;
71665;SDS011;59503;53.486;10.196;2023-04-12T06:23:22;7.60;;;2.70;;
71665;SDS011;59503;53.486;10.196;2023-04-12T06:25:48;7.23;;;2.40;;
71665;SDS011;59503;53.486;10.196;2023-04-12T06:28:14;7.15;;;2.60;;
71665;SDS011;59503;53.486;10.196;2023-04-12T06:30:40;4.60;;;2.00;;
71665;SDS011;59503;53.486;10.196;2023-04-12T06:33:06;8.60;;;2.50;;
71665;SDS011;59503;53.486;10.196;2023-04-12T06:35:32;6.28;;;2.20;;
71665;SDS011;59503;53.486;10.196;2023-04-12T06:37:57;4.80;;;2.07;;
71665;SDS011;59503;53.486;10.196;2023-04-12T06:40:23;7.70;;;1.97;;
71665;SDS011;59503;53.486;10.196;2023-04-12T06:42:48;5.57;;;2.22;;
71665;SDS011;59503;53.486;10.196;2023-04-12T06:45:14;7.67;;;2.03;;
71665;SDS011;59503;53.486;10.196;2023-04-12T06:47:39;5.53;;;2.10;;
71665;SDS011;59503;53.486;10.196;2023-04-12T06:50:05;5.75;;;1.90;;
71665;SDS011;59503;53.486;10.196;2023-04-12T06:52:31;6.68;;;2.00;;
71665;SDS011;59503;53.486;10.196;2023-04-12T06:54:56;5.40;;;1.40;;
71665;SDS011;59503;53.486;10.196;2023-04-12T06:57:23;3.93;;;1.43;;
71665;SDS011;59503;53.486;10.196;2023-04-12T06:59:48;7.10;;;2.20;;
71665;SDS011;59503;53.486;10.196;2023-04-12T07:02:14;6.67;;;2.37;;
71665;SDS011;59503;53.486;10.196;2023-04-12T07:04:39;3.67;;;1.50;;
71665;SDS011;59503;53.486;10.196;2023-04-12T07:07:05;4.20;;;1.70;;
71665;SDS011;59503;53.486;10.196;2023-04-12T07:09:31;4.93;;;1.85;;
71665;SDS011;59503;53.486;10.196;2023-04-12T07:11:57;4.93;;;1.60;;
71665;SDS011;59503;53.486;10.196;2023-04-12T07:14:22;4.07;;;2.00;;
71665;SDS011;59503;53.486;10.196;2023-04-12T07:16:48;10.57;;;1.50;;
71665;SDS011;59503;53.486;10.196;2023-04-12T07:19:13;7.65;;;1.90;;
71665;SDS011;59503;53.486;10.196;2023-04-12T07:21:40;5.97;;;1.40;;
71665;SDS011;59503;53.486;10.196;2023-04-12T07:24:06;2.10;;;1.37;;
71665;SDS011;59503;53.486;10.196;2023-04-12T07:26:31;4.67;;;1.50;;
71665;SDS011;59503;53.486;10.196;2023-04-12T07:28:57;7.10;;;1.60;;
71665;SDS011;59503;53.486;10.196;2023-04-12T07:31:22;3.50;;;1.53;;
71665;SDS011;59503;53.486;10.196;2023-04-12T07:33:48;4.23;;;1.50;;
71665;SDS011;59503;53.486;10.196;2023-04-12T07:36:13;5.20;;;1.50;;
71665;SDS011;59503;53.486;10.196;2023-04-12T07:38:44;5.32;;;1.80;;
71665;SDS011;59503;53.486;10.196;2023-04-12T07:41:10;8.30;;;1.70;;
71665;SDS011;59503;53.486;10.196;2023-04-12T07:43:35;5.80;;;2.00;;
71665;SDS011;59503;53.486;10.196;2023-04-12T07:46:00;4.43;;;1.93;;
71665;SDS011;59503;53.486;10.196;2023-04-12T07:48:31;5.72;;;1.80;;
71665;SDS011;59503;53.486;10.196;2023-04-12T07:50:57;7.13;;;1.80;;
71665;SDS011;59503;53.486;10.196;2023-04-12T07:53:23;5.72;;;1.40;;
71665;SDS011;59503;53.486;10.196;2023-04-12T07:55:50;3.70;;;1.67;;
71665;SDS011;59503;53.486;10.196;2023-04-12T07:58:17;5.70;;;1.90;;
71665;SDS011;59503;53.486;10.196;2023-04-12T08:00:43;3.35;;;1.40;;
71665;SDS011;59503;53.486;10.196;2023-04-12T08:03:10;3.85;;;2.00;;
71665;SDS011;59503;53.486;10.196;2023-04-12T08:05:36;6.47;;;1.88;;
71665;SDS011;59503;53.486;10.196;2023-04-12T08:08:02;4.93;;;1.83;;
71665;SDS011;59503;53.486;10.196;2023-04-12T08:10:28;3.28;;;1.50;;
71665;SDS011;59503;53.486;10.196;2023-04-12T08:12:55;5.25;;;1.55;;
71665;SDS011;59503;53.486;10.196;2023-04-12T08:15:20;3.90;;;1.70;;
71665;SDS011;59503;53.486;10.196;2023-04-12T08:17:45;3.87;;;1.70;;
71665;SDS011;59503;53.486;10.196;2023-04-12T08:20:12;6.03;;;1.70;;
71665;SDS011;59503;53.486;10.196;2023-04-12T08:22:39;5.05;;;1.92;;
71665;SDS011;59503;53.486;10.196;2023-04-12T08:25:09;7.28;;;1.70;;
71665;SDS011;59503;53.486;10.196;2023-04-12T08:27:35;4.47;;;1.73;;
71665;SDS011;59503;53.486;10.196;2023-04-12T08:30:04;6.55;;;1.80;;
71665;SDS011;59503;53.486;10.196;2023-04-12T08:32:30;7.22;;;1.90;;
71665;SDS011;59503;53.486;10.196;2023-04-12T08:34:56;4.93;;;2.00;;
71665;SDS011;59503;53.486;10.196;2023-04-12T08:37:21;5.90;;;1.92;;
71665;SDS011;59503;53.486;10.196;2023-04-12T08:39:47;5.50;;;1.70;;
71665;SDS011;59503;53.486;10.196;2023-04-12T08:42:12;5.57;;;1.63;;
71665;SDS011;59503;53.486;10.196;2023-04-12T08:44:40;4.70;;;2.28;;
71665;SDS011;59503;53.486;10.196;2023-04-12T08:47:07;6.57;;;1.60;;
71665;SDS011;59503;53.486;10.196;2023-04-12T08:49:34;4.70;;;1.85;;
71665;SDS011;59503;53.486;10.196;2023-04-12T08:52:00;6.93;;;2.63;;
71665;SDS011;59503;53.486;10.196;2023-04-12T08:54:29;5.22;;;2.10;;
71665;SDS011;59503;53.486;10.196;2023-04-12T08:56:56;7.18;;;1.85;;
71665;SDS011;59503;53.486;10.196;2023-04-12T08:59:26;5.40;;;1.67;;
71665;SDS011;59503;53.486;10.196;2023-04-12T09:01:53;7.03;;;2.33;;
71665;SDS011;59503;53.486;10.196;2023-04-12T09:04:19;6.23;;;2.00;;
71665;SDS011;59503;53.486;10.196;2023-04-12T09:06:45;8.75;;;2.13;;
71665;SDS011;59503;53.486;10.196;2023-04-12T09:09:10;4.20;;;1.60;;
71665;SDS011;59503;53.486;10.196;2023-04-12T09:11:36;6.67;;;1.90;;
71665;SDS011;59503;53.486;10.196;2023-04-12T09:14:01;4.68;;;1.73;;
71665;SDS011;59503;53.486;10.196;2023-04-12T09:19:03;6.05;;;1.63;;
71665;SDS011;59503;53.486;10.196;2023-04-12T09:21:29;8.68;;;1.90;;
71665;SDS011;59503;53.486;10.196;2023-04-12T09:24:08;4.70;;;2.30;;
71665;SDS011;59503;53.486;10.196;2023-04-12T09:26:34;10.77;;;2.13;;
71665;SDS011;59503;53.486;10.196;2023-04-12T09:29:00;7.43;;;2.40;;
71665;SDS011;59503;53.486;10.196;2023-04-12T09:31:26;6.90;;;2.20;;
71665;SDS011;59503;53.486;10.196;2023-04-12T09:33:51;5.77;;;2.20;;
71665;SDS011;59503;53.486;10.196;2023-04-12T09:36:24;8.65;;;1.95;;
71665;SDS011;59503;53.486;10.196;2023-04-12T09:39:01;5.07;;;1.50;;
71665;SDS011;59503;53.486;10.196;2023-04-12T09:41:28;5.13;;;1.60;;
71665;SDS011;59503;53.486;10.196;2023-04-12T09:43:56;3.13;;;1.52;;
71665;SDS011;59503;53.486;10.196;2023-04-12T09:46:22;3.55;;;1.42;;
71665;SDS011;59503;53.486;10.196;2023-04-12T09:48:48;4.73;;;1.60;;
71665;SDS011;59503;53.486;10.196;2023-04-12T09:51:29;6.10;;;1.70;;
71665;SDS011;59503;53.486;10.196;2023-04-12T09:53:57;4.65;;;2.20;;
71665;SDS011;59503;53.486;10.196;2023-04-12T09:56:30;7.28;;;1.50;;
71665;SDS011;59503;53.486;10.196;2023-04-12T09:59:04;5.10;;;1.90;;
71665;SDS011;59503;53.486;10.196;2023-04-12T10:01:34;5.47;;;1.50;;
71665;SDS011;59503;53.486;10.196;2023-04-12T10:04:02;5.40;;;1.60;;
71665;SDS011;59503;53.486;10.196;2023-04-12T10:06:32;5.22;;;1.83;;
71665;SDS011;59503;53.486;10.196;2023-04-12T10:08:58;4.57;;;1.42;;
71665;SDS011;59503;53.486;10.196;2023-04-12T10:11:26;6.88;;;1.90;;
71665;SDS011;59503;53.486;10.196;2023-04-12T10:13:52;7.70;;;1.70;;
71665;SDS011;59503;53.486;10.196;2023-04-12T10:16:20;5.60;;;1.95;;
71665;SDS011;59503;53.486;10.196;2023-04-12T10:18:46;8.15;;;1.52;;
71665;SDS011;59503;53.486;10.196;2023-04-12T10:21:14;3.58;;;1.40;;
71665;SDS011;59503;53.486;10.196;2023-04-12T10:23:42;4.88;;;1.27;;
71665;SDS011;59503;53.486;10.196;2023-04-12T10:26:08;7.87;;;1.83;;
71665;SDS011;59503;53.486;10.196;2023-04-12T10:28:34;8.18;;;1.70;;
71665;SDS011;59503;53.486;10.196;2023-04-12T10:31:00;5.00;;;1.23;;
71665;SDS011;59503;53.486;10.196;2023-04-12T10:33:53;5.07;;;1.58;;
71665;SDS011;59503;53.486;10.196;2023-04-12T10:36:19;5.45;;;1.40;;
71665;SDS011;59503;53.486;10.196;2023-04-12T10:38:45;5.00;;;1.23;;
71665;SDS011;59503;53.486;10.196;2023-04-12T10:41:29;5.45;;;1.50;;
71665;SDS011;59503;53.486;10.196;2023-04-12T10:44:21;6.22;;;1.00;;
71665;SDS011;59503;53.486;10.196;2023-04-12T10:46:50;4.50;;;1.30;;
71665;SDS011;59503;53.486;10.196;2023-04-12T10:49:15;4.57;;;1.30;;
71665;SDS011;59503;53.486;10.196;2023-04-12T10:56:56;5.85;;;1.60;;
71665;SDS011;59503;53.486;10.196;2023-04-12T10:59:21;5.43;;;1.50;;
71665;SDS011;59503;53.486;10.196;2023-04-12T11:04:31;4.35;;;1.70;;
71665;SDS011;59503;53.486;10.196;2023-04-12T11:07:00;4.47;;;1.30;;
71665;SDS011;59503;53.486;10.196;2023-04-12T11:14:29;6.03;;;1.93;;
71665;SDS011;59503;53.486;10.196;2023-04-12T11:19:36;7.13;;;2.28;;
71665;SDS011;59503;53.486;10.196;2023-04-12T11:22:04;9.23;;;2.03;;
71665;SDS011;59503;53.486;10.196;2023-04-12T11:24:31;7.32;;;2.58;;
71665;SDS011;59503;53.486;10.196;2023-04-12T11:26:57;8.03;;;2.47;;
71665;SDS011;59503;53.486;10.196;2023-04-12T11:29:23;8.18;;;3.40;;
71665;SDS011;59503;53.486;10.196;2023-04-12T11:31:52;8.35;;;2.65;;
71665;SDS011;59503;53.486;10.196;2023-04-12T11:34:19;10.27;;;3.00;;
71665;SDS011;59503;53.486;10.196;2023-04-12T11:36:45;10.13;;;3.40;;
71665;SDS011;59503;53.486;10.196;2023-04-12T11:39:11;7.15;;;3.88;;
71665;SDS011;59503;53.486;10.196;2023-04-12T11:41:42;8.15;;;3.40;;
71665;SDS011;59503;53.486;10.196;2023-04-12T11:44:08;9.45;;;3.63;;
71665;SDS011;59503;53.486;10.196;2023-04-12T11:46:34;11.03;;;4.00;;
71665;SDS011;59503;53.486;10.196;2023-04-12T11:49:00;11.93;;;3.43;;
71665;SDS011;59503;53.486;10.196;2023-04-12T11:51:25;6.95;;;3.67;;
71665;SDS011;59503;53.486;10.196;2023-04-12T11:53:54;9.40;;;3.85;;
71665;SDS011;59503;53.486;10.196;2023-04-12T11:56:22;8.73;;;3.97;;
71665;SDS011;59503;53.486;10.196;2023-04-12T11:58:47;12.57;;;4.40;;
71665;SDS011;59503;53.486;10.196;2023-04-12T12:01:17;9.57;;;4.05;;
71665;SDS011;59503;53.486;10.196;2023-04-12T12:03:44;10.57;;;4.00;;
71665;SDS011;59503;53.486;10.196;2023-04-12T12:06:11;10.65;;;3.88;;
71665;SDS011;59503;53.486;10.196;2023-04-12T12:08:37;9.82;;;3.97;;
71665;SDS011;59503;53.486;10.196;2023-04-12T12:11:03;12.67;;;4.20;;
71665;SDS011;59503;53.486;10.196;2023-04-12T12:16:14;11.55;;;4.05;;
71665;SDS011;59503;53.486;10.196;2023-04-12T12:18:41;11.48;;;4.20;;
71665;SDS011;59503;53.486;10.196;2023-04-12T12:21:08;12.37;;;4.00;;
71665;SDS011;59503;53.486;10.196;2023-04-12T12:23:35;13.95;;;4.30;;
71665;SDS011;59503;53.486;10.196;2023-04-12T12:26:01;10.07;;;4.43;;
71665;SDS011;59503;53.486;10.196;2023-04-12T12:28:39;12.65;;;4.45;;
71665;SDS011;59503;53.486;10.196;2023-04-12T12:31:05;13.05;;;4.93;;
71665;SDS011;59503;53.486;10.196;2023-04-12T12:33:37;9.10;;;4.27;;
71665;SDS011;59503;53.486;10.196;2023-04-12T12:36:04;14.63;;;4.90;;
71665;SDS011;59503;53.486;10.196;2023-04-12T12:38:36;11.20;;;4.40;;
71665;SDS011;59503;53.486;10.196;2023-04-12T12:41:16;13.93;;;3.83;;
71665;SDS011;59503;53.486;10.196;2023-04-12T12:43:50;10.20;;;3.63;;
71665;SDS011;59503;53.486;10.196;2023-04-12T12:46:17;10.27;;;3.50;;
71665;SDS011;59503;53.486;10.196;2023-04-12T12:48:44;8.40;;;2.88;;
71665;SDS011;59503;53.486;10.196;2023-04-12T12:51:11;4.72;;;2.22;;
71665;SDS011;59503;53.486;10.196;2023-04-12T12:53:38;6.00;;;2.63;;
71665;SDS011;59503;53.486;10.196;2023-04-12T12:56:05;6.53;;;3.20;;
71665;SDS011;59503;53.486;10.196;2023-04-12T12:58:31;7.67;;;2.87;;
71665;SDS011;59503;53.486;10.196;2023-04-12T13:00:56;5.82;;;2.20;;
71665;SDS011;59503;53.486;10.196;2023-04-12T13:03:22;11.23;;;3.03;;
71665;SDS011;59503;53.486;10.196;2023-04-12T13:05:48;5.73;;;2.10;;
71665;SDS011;59503;53.486;10.196;2023-04-12T13:08:14;6.28;;;2.30;;
71665;SDS011;59503;53.486;10.196;2023-04-12T13:10:40;5.18;;;2.25;;
71665;SDS011;59503;53.486;10.196;2023-04-12T13:13:05;3.23;;;2.03;;
71665;SDS011;59503;53.486;10.196;2023-04-12T13:15:31;10.37;;;2.40;;
71665;SDS011;59503;53.486;10.196;2023-04-12T13:17:56;3.35;;;2.08;;
71665;SDS011;59503;53.486;10.196;2023-04-12T13:20:22;4.10;;;1.60;;
71665;SDS011;59503;53.486;10.196;2023-04-12T13:22:48;6.77;;;2.00;;
71665;SDS011;59503;53.486;10.196;2023-04-12T13:25:14;7.78;;;1.65;;
71665;SDS011;59503;53.486;10.196;2023-04-12T13:27:39;4.53;;;2.03;;
71665;SDS011;59503;53.486;10.196;2023-04-12T13:30:05;4.70;;;1.83;;
71665;SDS011;59503;53.486;10.196;2023-04-12T13:32:31;7.15;;;1.70;;
71665;SDS011;59503;53.486;10.196;2023-04-12T13:34:56;4.53;;;1.63;;
71665;SDS011;59503;53.486;10.196;2023-04-12T13:37:22;3.67;;;1.80;;
71665;SDS011;59503;53.486;10.196;2023-04-12T13:39:48;5.73;;;1.77;;
71665;SDS011;59503;53.486;10.196;2023-04-12T13:42:15;4.20;;;1.45;;
71665;SDS011;59503;53.486;10.196;2023-04-12T13:44:40;7.95;;;2.00;;
71665;SDS011;59503;53.486;10.196;2023-04-12T13:47:05;4.50;;;1.70;;
71665;SDS011;59503;53.486;10.196;2023-04-12T13:49:31;7.17;;;3.47;;
71665;SDS011;59503;53.486;10.196;2023-04-12T13:51:56;5.17;;;2.33;;
71665;SDS011;59503;53.486;10.196;2023-04-12T13:54:22;9.13;;;2.20;;
71665;SDS011;59503;53.486;10.196;2023-04-12T13:56:47;6.55;;;2.17;;
71665;SDS011;59503;53.486;10.196;2023-04-12T13:59:13;5.57;;;2.80;;
71665;SDS011;59503;53.486;10.196;2023-04-12T14:01:38;6.77;;;2.40;;
71665;SDS011;59503;53.486;10.196;2023-04-12T14:04:04;6.55;;;2.67;;
71665;SDS011;59503;53.486;10.196;2023-04-12T14:06:31;8.45;;;3.03;;
71665;SDS011;59503;53.486;10.196;2023-04-12T14:08:57;6.03;;;2.63;;
71665;SDS011;59503;53.486;10.196;2023-04-12T14:11:22;6.07;;;2.40;;
71665;SDS011;59503;53.486;10.196;2023-04-12T14:13:49;6.57;;;2.83;;
71665;SDS011;59503;53.486;10.196;2023-04-12T14:16:14;10.77;;;3.40;;
71665;SDS011;59503;53.486;10.196;2023-04-12T14:18:40;7.40;;;2.23;;
71665;SDS011;59503;53.486;10.196;2023-04-12T14:21:05;6.43;;;2.57;;
71665;SDS011;59503;53.486;10.196;2023-04-12T14:23:31;6.43;;;2.50;;
71665;SDS011;59503;53.486;10.196;2023-04-12T14:25:56;7.13;;;2.50;;
71665;SDS011;59503;53.486;10.196;2023-04-12T14:28:22;5.30;;;2.10;;
71665;SDS011;59503;53.486;10.196;2023-04-12T14:30:52;6.45;;;2.00;;
71665;SDS011;59503;53.486;10.196;2023-04-12T14:33:18;3.70;;;1.70;;
71665;SDS011;59503;53.486;10.196;2023-04-12T14:35:43;5.07;;;2.10;;
71665;SDS011;59503;53.486;10.196;2023-04-12T14:38:09;6.90;;;2.37;;
71665;SDS011;59503;53.486;10.196;2023-04-12T14:40:35;7.50;;;2.00;;
71665;SDS011;59503;53.486;10.196;2023-04-12T14:43:00;3.33;;;1.77;;
71665;SDS011;59503;53.486;10.196;2023-04-12T14:45:25;5.03;;;1.90;;
71665;SDS011;59503;53.486;10.196;2023-04-12T14:47:51;5.53;;;1.77;;
71665;SDS011;59503;53.486;10.196;2023-04-12T14:50:17;5.43;;;1.95;;
71665;SDS011;59503;53.486;10.196;2023-04-12T14:52:43;3.10;;;1.80;;
71665;SDS011;59503;53.486;10.196;2023-04-12T14:55:08;4.63;;;2.20;;
71665;SDS011;59503;53.486;10.196;2023-04-12T14:57:34;3.90;;;2.10;;